Time;durP1;ratioP1;P1;durP2;ratioP2;P2;SDS_P1;SDS_P2;PMS_P1;PMS_P2;Temp;Humidity;BMP_temperature;BMP_pressure;BME280_temperature;BME280_humidity;BME280_pressure;Samples;Min_cycle;Max_cycle;Signal;HPM_P1;HPM_P2
2021/07/11 00:00:04;;;;;;;21.48;11.18;;;;;;;18.78;74.95;100637.98;1884374;76;21022;-63
2021/07/11 00:02:33;;;;;;;21.97;15.13;;;;;;;18.72;75.19;100642.45;1885772;76;21493;-63
2021/07/11 00:05:03;;;;;;;23.25;19.80;;;;;;;18.67;75.29;100643.27;1885684;76;21097;-63
2021/07/11 00:07:32;;;;;;;29.15;25.15;;;;;;;18.66;75.14;100642.89;1885849;76;21038;-63
2021/07/11 00:10:01;;;;;;;31.23;22.32;;;;;;;18.65;75.19;100637.20;1885689;76;21058;-63
2021/07/11 00:12:30;;;;;;;28.40;22.37;;;;;;;18.61;75.56;100639.25;1886008;76;21038;-63
2021/07/11 00:14:59;;;;;;;30.08;25.95;;;;;;;18.61;75.34;100635.70;1884901;76;21054;-63
2021/07/11 00:17:27;;;;;;;44.30;38.38;;;;;;;18.56;75.78;100632.55;1885362;76;21074;-64
2021/07/11 00:19:56;;;;;;;45.23;40.58;;;;;;;18.51;75.81;100629.72;1885790;76;21198;-63
2021/07/11 00:22:24;;;;;;;51.33;45.92;;;;;;;18.49;75.68;100631.66;1885872;76;21058;-63
2021/07/11 00:24:54;;;;;;;44.23;36.65;;;;;;;18.49;75.63;100634.31;1884963;76;21124;-63
2021/07/11 00:27:22;;;;;;;39.03;31.73;;;;;;;18.48;75.83;100635.30;1885789;76;21485;-63
2021/07/11 00:29:51;;;;;;;40.90;28.05;;;;;;;18.46;75.89;100627.91;1885031;76;21015;-63
2021/07/11 00:32:20;;;;;;;37.88;25.12;;;;;;;18.45;75.66;100635.52;1885733;76;21104;-64
2021/07/11 00:34:48;;;;;;;30.88;21.55;;;;;;;18.44;75.63;100627.17;1885798;76;21485;-64
2021/07/11 00:37:17;;;;;;;29.25;18.00;;;;;;;18.43;75.60;100636.61;1885808;76;21038;-64
2021/07/11 00:39:45;;;;;;;22.50;13.93;;;;;;;18.37;75.90;100635.25;1885873;76;21079;-63
2021/07/11 00:42:16;;;;;;;22.45;13.32;;;;;;;18.37;75.76;100637.91;1885917;76;21141;-63
2021/07/11 00:44:45;;;;;;;18.27;11.10;;;;;;;18.36;75.79;100633.53;1885774;76;21094;-63
2021/07/11 00:47:14;;;;;;;19.95;9.68;;;;;;;18.35;75.97;100630.48;1885733;76;21129;-63
2021/07/11 00:49:46;;;;;;;24.37;10.88;;;;;;;18.32;76.20;100637.39;1885343;76;21151;-63
2021/07/11 00:52:15;;;;;;;21.45;10.50;;;;;;;18.28;76.14;100631.92;1885775;76;21516;-64
2021/07/11 00:54:45;;;;;;;18.50;10.90;;;;;;;18.29;75.96;100633.61;1885598;76;21086;-64
2021/07/11 00:57:15;;;;;;;23.67;16.52;;;;;;;18.29;76.16;100636.27;1885631;76;21062;-64
2021/07/11 00:59:45;;;;;;;23.95;18.57;;;;;;;18.26;76.46;100628.48;1886067;76;21038;-64
2021/07/11 01:02:46;;;;;;;50.98;39.05;;;;;;;18.25;76.25;100637.47;1885879;76;21058;-64
2021/07/11 01:05:16;;;;;;;41.20;33.13;;;;;;;18.27;75.95;100638.20;1885711;76;21493;-64
2021/07/11 01:07:50;;;;;;;39.10;32.35;;;;;;;18.27;75.83;100636.38;1885677;76;21509;-64
2021/07/11 01:10:29;;;;;;;38.40;26.85;;;;;;;18.27;75.77;100635.53;1884660;76;21069;-64
2021/07/11 01:13:00;;;;;;;33.02;23.92;;;;;;;18.28;75.61;100639.92;1885588;76;21140;-64
2021/07/11 01:15:31;;;;;;;45.55;31.82;;;;;;;18.26;75.70;100639.15;1870049;76;21051;-64
2021/07/11 01:18:03;;;;;;;22.42;14.47;;;;;;;18.23;76.02;100642.91;1868542;77;21071;-64
2021/07/11 01:20:40;;;;;;;23.92;13.80;;;;;;;18.19;76.30;100648.58;1868714;76;21537;-64
2021/07/11 01:23:12;;;;;;;27.32;11.53;;;;;;;18.16;76.26;100644.31;1868650;77;21132;-64
2021/07/11 01:25:50;;;;;;;19.17;10.55;;;;;;;18.17;76.17;100639.36;1868701;77;21086;-64
2021/07/11 01:28:20;;;;;;;22.27;11.68;;;;;;;18.19;76.18;100645.43;1868574;77;21093;-64
2021/07/11 01:30:52;;;;;;;26.00;17.27;;;;;;;18.23;75.92;100650.05;1868912;77;21138;-64
2021/07/11 01:33:24;;;;;;;28.42;18.20;;;;;;;18.23;75.86;100654.05;1868966;77;21121;-64
2021/07/11 01:35:55;;;;;;;29.92;18.80;;;;;;;18.22;75.76;100655.00;1868753;77;21144;-64
2021/07/11 01:38:25;;;;;;;30.30;17.52;;;;;;;18.22;75.68;100646.55;1868699;77;21517;-64
2021/07/11 01:40:54;;;;;;;25.60;15.53;;;;;;;18.22;75.59;100653.21;1868442;77;21481;-64
2021/07/11 01:43:25;;;;;;;30.88;18.25;;;;;;;18.24;75.51;100659.73;1868550;77;21117;-64
2021/07/11 01:45:56;;;;;;;27.40;15.32;;;;;;;18.24;75.54;100662.40;1868575;77;21106;-64
2021/07/11 01:48:26;;;;;;;28.65;14.28;;;;;;;18.25;75.46;100650.30;1868781;77;21102;-63
2021/07/11 01:50:56;;;;;;;24.95;13.53;;;;;;;18.26;75.40;100657.80;1868576;77;21564;-63
2021/07/11 01:53:28;;;;;;;29.63;17.90;;;;;;;18.28;75.32;100663.91;1868528;77;21122;-64
2021/07/11 01:55:58;;;;;;;21.45;15.40;;;;;;;18.29;75.37;100664.26;1868603;77;21169;-64
2021/07/11 01:58:27;;;;;;;34.60;24.50;;;;;;;18.30;75.53;100663.31;1839843;77;21120;-64
2021/07/11 02:00:57;;;;;;;32.03;23.27;;;;;;;18.28;75.70;100659.91;1868640;77;21137;-64
2021/07/11 02:03:27;;;;;;;32.65;19.40;;;;;;;18.26;75.78;100664.47;1868774;77;21040;-64
2021/07/11 02:06:08;;;;;;;33.25;20.82;;;;;;;18.25;75.73;100668.11;1868303;77;21071;-64
2021/07/11 02:08:41;;;;;;;29.77;18.75;;;;;;;18.28;75.66;100663.91;1868785;77;21063;-63
2021/07/11 02:11:17;;;;;;;27.40;14.65;;;;;;;18.30;75.58;100661.97;1868504;77;21074;-64
2021/07/11 02:14:12;;;;;;;17.65;10.50;;;;;;;18.29;75.61;100657.59;1867043;77;21046;-63
2021/07/11 02:16:51;;;;;;;18.48;9.45;;;;;;;18.28;75.86;100662.08;1868532;77;21083;-64
2021/07/11 02:19:22;;;;;;;15.63;9.23;;;;;;;18.28;75.86;100666.57;1868450;77;21098;-64
2021/07/11 02:21:54;;;;;;;17.25;9.13;;;;;;;18.30;75.82;100665.48;1868531;76;21529;-64
2021/07/11 02:24:25;;;;;;;20.05;9.48;;;;;;;18.35;75.76;100661.63;1868511;77;21083;-64
2021/07/11 02:26:55;;;;;;;17.85;9.33;;;;;;;18.38;75.81;100658.75;1868417;77;21090;-64
2021/07/11 02:29:27;;;;;;;18.05;10.90;;;;;;;18.43;75.66;100661.94;1868575;77;21137;-64
2021/07/11 02:31:57;;;;;;;24.80;12.65;;;;;;;18.47;75.52;100661.58;1868544;77;21236;-64
2021/07/11 02:34:26;;;;;;;24.27;14.75;;;;;;;18.59;75.31;100657.17;1868668;77;21098;-64
2021/07/11 02:36:56;;;;;;;21.48;12.88;;;;;;;18.72;75.06;100665.12;1868634;77;21431;-64
2021/07/11 02:39:26;;;;;;;18.17;11.40;;;;;;;18.82;74.91;100658.14;1868529;77;21200;-63
2021/07/11 02:41:59;;;;;;;17.73;10.38;;;;;;;18.97;74.77;100665.97;1867849;77;21501;-64
2021/07/11 02:44:30;;;;;;;20.30;9.40;;;;;;;19.11;74.57;100663.11;1868674;76;21204;-64
2021/07/11 02:47:01;;;;;;;18.55;9.20;;;;;;;19.24;74.11;100665.69;1868839;77;21047;-63
2021/07/11 02:49:34;;;;;;;13.48;8.90;;;;;;;19.28;73.40;100667.15;1867491;77;21068;-65
2021/07/11 02:52:06;;;;;;;18.90;10.75;;;;;;;19.40;73.20;100670.68;1867403;77;21145;-63
2021/07/11 02:54:44;;;;;;;24.87;12.35;;;;;;;19.55;72.89;100666.84;1868662;77;21086;-63
2021/07/11 02:57:17;;;;;;;25.00;10.03;;;;;;;19.61;72.36;100669.02;1868530;77;21152;-63
2021/07/11 02:59:49;;;;;;;22.50;9.23;;;;;;;19.67;72.11;100669.86;1868783;77;21079;-64
2021/07/11 03:02:21;;;;;;;28.83;10.48;;;;;;;19.78;71.99;100670.89;1868602;77;21100;-64
2021/07/11 03:04:51;;;;;;;22.00;9.40;;;;;;;19.90;71.52;100669.92;1868986;77;21023;-63
2021/07/11 03:07:21;;;;;;;19.32;9.93;;;;;;;20.04;71.35;100669.65;1868706;77;21093;-64
2021/07/11 03:09:50;;;;;;;18.65;8.75;;;;;;;20.14;70.80;100664.44;1821020;77;21035;-63
2021/07/11 03:12:20;;;;;;;15.15;7.42;;;;;;;20.20;70.57;100667.94;1868912;77;21446;-63
2021/07/11 03:14:51;;;;;;;16.60;9.88;;;;;;;20.26;70.50;100663.92;1868341;76;21517;-64
2021/07/11 03:17:23;;;;;;;29.60;18.62;;;;;;;20.36;70.42;100663.55;1885890;76;21140;-63
2021/07/11 03:19:55;;;;;;;31.10;18.93;;;;;;;20.53;70.00;100669.34;1854629;76;21055;-63
2021/07/11 03:22:28;;;;;;;25.60;18.80;;;;;;;20.70;69.80;100663.47;1885815;76;21077;-63
2021/07/11 03:24:59;;;;;;;;;;;;;;;20.83;69.34;100670.83;1888568;76;21140;-63
2021/07/11 03:27:31;;;;;;;34.30;17.75;;;;;;;20.98;69.39;100665.17;1885823;76;20188;-63
2021/07/11 03:30:14;;;;;;;25.62;18.35;;;;;;;21.14;69.16;100669.59;1885781;76;21066;-63
2021/07/11 03:32:48;;;;;;;27.50;18.02;;;;;;;21.28;68.71;100671.08;1885905;76;21513;-63
2021/07/11 03:35:19;;;;;;;24.55;15.80;;;;;;;21.44;68.61;100671.13;1881055;76;21023;-63
2021/07/11 03:37:51;;;;;;;19.80;12.60;;;;;;;21.61;68.39;100670.54;1885894;76;21121;-63
2021/07/11 03:40:24;;;;;;;24.00;9.98;;;;;;;21.78;68.04;100669.06;1885937;76;21070;-64
2021/07/11 03:42:54;;;;;;;;;;;;;;;21.89;67.00;100666.31;1851328;76;21054;-63
2021/07/11 03:45:24;;;;;;;71.00;40.10;;;;;;;22.00;67.06;100665.84;1885527;76;20143;-63
2021/07/11 03:47:59;;;;;;;37.48;22.40;;;;;;;22.10;66.89;100666.73;1885779;76;21485;-64
2021/07/11 03:50:28;;;;;;;27.30;14.13;;;;;;;22.17;65.98;100661.19;1884877;76;21105;-63
2021/07/11 03:53:00;;;;;;;23.10;12.13;;;;;;;22.24;65.39;100664.98;1885815;76;21555;-63
2021/07/11 03:55:30;;;;;;;16.75;9.55;;;;;;;22.30;64.90;100661.80;1885273;76;21050;-63
2021/07/11 03:58:00;;;;;;;27.87;12.20;;;;;;;22.38;64.42;100662.95;1885945;76;21124;-63
2021/07/11 04:00:31;;;;;;;22.02;10.78;;;;;;;22.49;64.00;100666.85;1885804;76;21130;-65
2021/07/11 04:03:03;;;;;;;21.97;9.48;;;;;;;22.56;63.51;100663.97;1885842;76;21042;-64
2021/07/11 04:05:34;;;;;;;18.37;7.95;;;;;;;22.56;62.51;100661.28;1885809;76;21109;-64
2021/07/11 04:08:04;;;;;;;23.95;11.33;;;;;;;22.65;62.33;100661.79;1885783;76;21047;-64
2021/07/11 04:10:33;;;;;;;17.42;9.30;;;;;;;22.83;62.19;100662.41;1885980;76;21051;-64
2021/07/11 04:13:03;;;;;;;14.95;8.88;;;;;;;22.99;61.87;100663.20;1885688;76;21050;-65
2021/07/11 04:15:34;;;;;;;13.60;8.43;;;;;;;23.12;61.55;100663.27;1885075;76;21043;-65
2021/07/11 04:18:08;;;;;;;13.95;7.78;;;;;;;23.31;61.15;100658.86;1885945;76;21072;-64
2021/07/11 04:20:38;;;;;;;16.35;8.35;;;;;;;23.54;60.61;100672.81;1885892;76;21141;-64
2021/07/11 04:23:09;;;;;;;15.58;8.23;;;;;;;23.74;60.02;100661.98;1885766;76;21042;-64
2021/07/11 04:25:41;;;;;;;20.32;8.25;;;;;;;23.99;59.62;100660.00;1885806;76;21042;-64
2021/07/11 04:28:11;;;;;;;19.12;8.83;;;;;;;24.21;58.91;100662.78;1885893;76;21015;-65
2021/07/11 04:30:40;;;;;;;17.55;8.05;;;;;;;24.50;58.82;100664.45;1885788;76;21078;-64
2021/07/11 04:33:14;;;;;;;14.93;8.60;;;;;;;24.87;58.23;100668.88;1885822;76;21497;-64
2021/07/11 04:35:43;;;;;;;19.17;7.85;;;;;;;25.18;57.49;100667.11;1886012;76;21465;-64
2021/07/11 04:38:12;;;;;;;16.97;7.05;;;;;;;25.53;57.10;100675.64;1885621;76;21129;-64
2021/07/11 04:40:41;;;;;;;22.77;8.95;;;;;;;25.81;55.89;100664.16;1885901;76;21042;-64
2021/07/11 04:43:10;;;;;;;17.95;8.48;;;;;;;26.05;54.94;100672.05;1885158;76;21544;-65
2021/07/11 04:45:39;;;;;;;15.28;7.35;;;;;;;26.38;54.60;100666.77;1885395;76;21131;-67
2021/07/11 04:48:08;;;;;;;19.65;8.03;;;;;;;26.63;53.65;100668.19;1880949;76;21108;-69
2021/07/11 04:50:36;;;;;;;19.70;8.73;;;;;;;26.87;52.93;100666.88;1882242;74;21094;-66
2021/07/11 04:53:05;;;;;;;17.27;8.18;;;;;;;27.14;52.42;100663.48;1875235;76;21035;-71
2021/07/11 04:55:34;;;;;;;17.45;7.37;;;;;;;27.36;52.21;100663.84;1883466;76;21071;-68
2021/07/11 04:58:03;;;;;;;15.55;7.37;;;;;;;27.59;51.24;100662.07;1851408;77;21133;-66
2021/07/11 05:00:32;;;;;;;19.90;7.78;;;;;;;27.75;50.28;100669.83;1849682;77;21070;-65
2021/07/11 05:03:01;;;;;;;19.37;8.10;;;;;;;27.85;49.33;100665.03;1882344;76;21078;-66
2021/07/11 05:05:29;;;;;;;15.45;7.58;;;;;;;27.92;49.06;100668.77;1881560;76;21058;-64
2021/07/11 05:07:58;;;;;;;16.17;8.23;;;;;;;28.15;48.93;100672.08;1878862;76;21062;-64
2021/07/11 05:10:27;;;;;;;17.42;8.38;;;;;;;28.34;48.40;100666.72;1879100;76;21136;-71
2021/07/11 05:12:55;;;;;;;22.48;8.85;;;;;;;28.62;47.98;100673.33;1881279;76;21043;-67
2021/07/11 05:15:24;;;;;;;27.93;8.90;;;;;;;28.92;47.26;100673.47;1882168;76;21003;-66
2021/07/11 05:17:53;;;;;;;20.45;8.90;;;;;;;29.18;46.76;100663.61;1875270;76;21156;-63
2021/07/11 05:20:21;;;;;;;18.00;8.53;;;;;;;29.43;46.39;100664.71;1872874;76;21050;-64
2021/07/11 05:22:50;;;;;;;14.28;8.18;;;;;;;29.59;46.76;100672.68;1873005;76;21458;-64
2021/07/11 05:25:19;;;;;;;25.23;9.08;;;;;;;29.79;46.27;100670.81;1873061;76;21040;-64
2021/07/11 05:27:48;;;;;;;18.35;8.45;;;;;;;29.89;45.54;100672.70;1873340;76;21042;-63
2021/07/11 05:30:18;;;;;;;19.42;8.45;;;;;;;30.15;45.50;100672.72;1872791;76;21563;-64
2021/07/11 05:32:47;;;;;;;25.10;9.43;;;;;;;30.36;45.50;100661.08;1872864;76;21007;-63
2021/07/11 05:35:16;;;;;;;20.43;9.58;;;;;;;30.62;44.50;100659.19;1872872;76;21193;-64
2021/07/11 05:37:45;;;;;;;23.10;10.10;;;;;;;30.80;44.11;100661.42;1872931;76;21031;-64
2021/07/11 05:40:16;;;;;;;28.42;11.50;;;;;;;30.96;43.89;100663.08;1872962;76;21042;-64
2021/07/11 05:42:45;;;;;;;24.32;10.25;;;;;;;31.09;43.43;100655.02;1872918;76;21112;-63
2021/07/11 05:45:14;;;;;;;26.90;11.53;;;;;;;31.27;43.00;100656.42;1872968;76;21485;-62
2021/07/11 05:47:43;;;;;;;26.27;10.98;;;;;;;31.32;42.69;100655.31;1873077;76;21042;-62
2021/07/11 05:50:12;;;;;;;22.85;10.93;;;;;;;31.37;42.40;100652.82;1872863;76;21088;-62
2021/07/11 05:52:41;;;;;;;34.70;12.23;;;;;;;31.59;42.57;100656.88;1872986;76;21509;-62
2021/07/11 05:55:12;;;;;;;29.00;12.00;;;;;;;31.69;41.54;100657.36;1872832;76;21620;-62
2021/07/11 05:57:40;;;;;;;33.20;12.80;;;;;;;31.78;41.18;100657.52;1872851;76;21209;-62
2021/07/11 06:00:11;;;;;;;44.33;12.60;;;;;;;31.81;41.20;100654.89;1872706;76;21066;-63
2021/07/11 06:02:43;;;;;;;35.40;10.70;;;;;;;31.96;41.48;100655.59;1873065;76;21474;-63
2021/07/11 06:05:12;;;;;;;33.08;10.72;;;;;;;32.06;40.54;100655.27;1872975;76;21031;-63
2021/07/11 06:07:41;;;;;;;29.55;10.78;;;;;;;32.16;40.05;100656.23;1873050;76;21128;-63
2021/07/11 06:10:11;;;;;;;31.93;10.18;;;;;;;32.31;39.99;100653.67;1872861;76;21101;-62
2021/07/11 06:12:39;;;;;;;29.25;9.68;;;;;;;32.55;40.04;100656.84;1873306;76;21101;-63
2021/07/11 06:15:09;;;;;;;25.15;9.23;;;;;;;32.60;39.51;100662.55;1873379;76;21070;-63
2021/07/11 06:17:38;;;;;;;23.35;8.73;;;;;;;32.71;39.16;100665.20;1873310;75;21046;-62
2021/07/11 06:20:10;;;;;;;18.57;8.15;;;;;;;32.84;38.71;100652.94;1873249;76;21090;-63
2021/07/11 06:22:39;;;;;;;16.50;7.83;;;;;;;32.88;38.46;100651.46;1873576;76;21082;-63
2021/07/11 06:25:09;;;;;;;17.42;9.08;;;;;;;32.92;37.69;100649.16;1873264;76;21496;-63
2021/07/11 06:27:41;;;;;;;27.80;8.00;;;;;;;33.05;38.03;100647.81;1873388;76;21042;-63
2021/07/11 06:30:13;;;;;;;17.02;8.40;;;;;;;33.12;36.43;100651.09;1873370;76;21129;-62
2021/07/11 06:32:43;;;;;;;14.25;6.80;;;;;;;33.11;36.77;100644.77;1873305;76;21015;-62
2021/07/11 06:35:14;;;;;;;9.73;7.03;;;;;;;33.17;36.33;100644.48;1873342;76;21114;-62
2021/07/11 06:37:43;;;;;;;14.00;7.35;;;;;;;33.24;36.16;100649.41;1873368;76;21112;-63
2021/07/11 06:40:13;;;;;;;12.55;7.47;;;;;;;33.33;36.26;100648.13;1873300;76;21078;-63
2021/07/11 06:42:42;;;;;;;14.33;8.05;;;;;;;33.44;36.08;100647.48;1873519;75;21114;-63
2021/07/11 06:45:12;;;;;;;13.75;7.03;;;;;;;33.56;34.52;100646.82;1873277;76;21137;-63
2021/07/11 06:47:42;;;;;;;12.03;6.87;;;;;;;33.54;35.01;100644.30;1873342;76;21118;-63
2021/07/11 06:50:14;;;;;;;12.73;7.22;;;;;;;33.77;34.71;100643.86;1873289;76;21512;-63
2021/07/11 06:52:44;;;;;;;18.90;7.12;;;;;;;33.84;34.33;100643.28;1873405;76;21112;-62
2021/07/11 06:55:13;;;;;;;16.97;7.95;;;;;;;33.91;33.96;100644.46;1873378;76;21105;-62
2021/07/11 06:57:42;;;;;;;16.02;7.40;;;;;;;34.26;34.38;100634.72;1873135;76;21100;-62
2021/07/11 07:00:13;;;;;;;16.20;7.33;;;;;;;34.26;34.38;100634.72;1873294;76;21042;-62
2021/07/11 07:02:42;;;;;;;14.65;7.58;;;;;;;34.34;33.50;100630.89;1873322;76;21100;-62
2021/07/11 07:05:12;;;;;;;16.65;7.45;;;;;;;34.45;33.27;100629.35;1873489;76;21007;-61
2021/07/11 07:07:41;;;;;;;18.35;8.40;;;;;;;34.45;33.27;100585.62;1873353;75;21108;-61
2021/07/11 07:10:13;;;;;;;18.23;8.00;;;;;;;34.68;33.60;100623.31;1873280;76;21035;-61
2021/07/11 07:12:44;;;;;;;22.85;7.25;;;;;;;34.93;33.05;100633.73;1873191;76;21106;-62
2021/07/11 07:15:14;;;;;;;23.87;8.08;;;;;;;34.98;32.69;100627.06;1873351;76;21014;-62
2021/07/11 07:17:44;;;;;;;17.37;7.55;;;;;;;34.93;32.63;100636.47;1873149;76;21038;-64
2021/07/11 07:20:14;;;;;;;17.30;7.33;;;;;;;35.03;32.99;100640.59;1873239;76;21521;-62
2021/07/11 07:22:43;;;;;;;14.20;6.95;;;;;;;35.17;32.41;100637.54;1873362;75;21105;-62
2021/07/11 07:25:15;;;;;;;20.23;8.60;;;;;;;35.21;32.00;100640.66;1873233;76;21188;-62
2021/07/11 07:27:45;;;;;;;20.53;8.00;;;;;;;35.46;32.14;100636.52;1873354;76;21019;-62
2021/07/11 07:30:15;;;;;;;11.75;6.85;;;;;;;35.77;31.85;100630.63;1873336;75;21831;-62
2021/07/11 07:32:45;;;;;;;18.62;8.05;;;;;;;35.53;30.86;100629.63;1873257;76;21039;-62
2021/07/11 07:35:15;;;;;;;11.55;6.83;;;;;;;35.24;30.96;100637.48;1873283;76;21121;-62
2021/07/11 07:37:45;;;;;;;18.37;8.25;;;;;;;35.21;30.80;100639.30;1873443;76;21458;-63
2021/07/11 07:40:17;;;;;;;15.68;7.87;;;;;;;35.37;31.26;100645.56;1873385;76;21096;-62
2021/07/11 07:42:47;;;;;;;25.05;7.95;;;;;;;35.50;30.75;100636.37;1873240;76;21027;-65
2021/07/11 07:45:17;;;;;;;17.20;7.72;;;;;;;35.57;30.14;100636.30;1873215;76;21035;-65
2021/07/11 07:47:46;;;;;;;14.60;7.35;;;;;;;35.70;30.33;100637.55;1873268;76;21543;-66
2021/07/11 07:50:15;;;;;;;12.37;6.97;;;;;;;35.66;29.10;100637.67;1872494;76;21047;-66
2021/07/11 07:52:44;;;;;;;23.57;8.90;;;;;;;35.48;28.64;100636.30;1878264;76;21121;-66
2021/07/11 07:55:14;;;;;;;17.12;8.25;;;;;;;35.55;29.66;100636.53;1879058;76;21109;-64
2021/07/11 07:57:43;;;;;;;16.75;7.25;;;;;;;35.79;30.04;100638.62;1873991;76;21058;-66
2021/07/11 08:00:14;;;;;;;10.58;6.83;;;;;;;35.85;29.23;100637.70;1874949;76;21043;-66
2021/07/11 08:02:44;;;;;;;17.57;7.03;;;;;;;35.82;29.28;100639.52;1851331;75;21118;-66
2021/07/11 08:05:13;;;;;;;19.87;7.05;;;;;;;35.87;29.70;100637.76;1846843;77;21579;-65
2021/07/11 08:07:42;;;;;;;14.45;6.85;;;;;;;36.16;30.19;100633.91;1847114;77;21019;-65
2021/07/11 08:10:15;;;;;;;10.72;6.37;;;;;;;36.56;30.61;100635.25;1847488;76;21501;-65
2021/07/11 08:12:44;;;;;;;15.00;7.45;;;;;;;36.83;30.57;100639.81;1847006;77;21576;-65
2021/07/11 08:15:19;;;;;;;11.95;6.87;;;;;;;36.95;29.49;100625.58;1847097;77;21179;-66
2021/07/11 08:17:50;;;;;;;15.83;6.97;;;;;;;37.08;29.70;100625.88;1846987;77;21062;-66
2021/07/11 08:20:20;;;;;;;14.95;7.12;;;;;;;37.20;28.96;100628.09;1847161;77;21160;-66
2021/07/11 08:22:49;;;;;;;10.50;7.17;;;;;;;37.20;28.52;100621.78;1847630;77;21505;-66
2021/07/11 08:25:19;;;;;;;11.25;6.53;;;;;;;36.92;28.08;100627.42;1847509;77;21116;-67
2021/07/11 08:27:48;;;;;;;11.55;6.62;;;;;;;36.95;28.32;100619.27;1847298;77;21184;-66
2021/07/11 08:30:18;;;;;;;9.40;6.90;;;;;;;36.78;28.28;100617.22;1846360;77;21117;-66
2021/07/11 08:32:47;;;;;;;14.25;6.80;;;;;;;36.82;27.20;100621.16;1847076;77;21031;-66
2021/07/11 08:35:16;;;;;;;12.33;6.60;;;;;;;36.69;27.23;100624.13;1847551;77;21450;-66
2021/07/11 08:37:45;;;;;;;11.73;5.20;;;;;;;36.74;27.41;100620.66;1847804;77;21070;-66
2021/07/11 08:40:15;;;;;;;23.20;7.37;;;;;;;36.76;27.03;100618.00;1846756;76;21580;-66
2021/07/11 08:42:43;;;;;;;13.28;6.75;;;;;;;36.68;26.03;100620.52;1846955;76;21034;-69
2021/07/11 08:45:13;;;;;;;13.80;6.40;;;;;;;36.50;26.80;100618.69;1847300;77;21070;-67
2021/07/11 08:47:43;;;;;;;13.58;7.28;;;;;;;36.62;26.68;100621.45;1874175;76;21486;-66
2021/07/11 08:50:14;;;;;;;14.13;6.47;;;;;;;36.83;27.34;100617.32;1878519;76;21075;-67
2021/07/11 08:52:44;;;;;;;11.28;6.10;;;;;;;37.01;26.63;100614.19;1873728;76;21101;-66
2021/07/11 08:55:19;;;;;;;12.25;6.60;;;;;;;36.93;26.59;100609.03;1873149;76;21039;-67
2021/07/11 08:57:53;;;;;;;14.63;6.72;;;;;;;37.02;27.24;100613.09;1878158;76;21039;-65
2021/07/11 09:00:25;;;;;;;14.10;6.37;;;;;;;37.19;27.49;100607.78;1879681;76;21043;-65
2021/07/11 09:02:54;;;;;;;13.78;6.80;;;;;;;37.31;27.52;100610.50;1879335;75;21066;-66
2021/07/11 09:05:29;;;;;;;13.75;7.12;;;;;;;37.29;27.29;100610.19;1878135;76;21031;-66
2021/07/11 09:08:06;;;;;;;14.75;7.80;;;;;;;37.33;27.54;100611.09;1878756;76;21015;-66
2021/07/11 09:11:00;;;;;;;14.10;6.70;;;;;;;37.55;28.24;100612.12;1879288;76;21035;-66
2021/07/11 09:13:33;;;;;;;9.45;5.85;;;;;;;37.47;27.31;100615.25;1878360;76;21027;-66
2021/07/11 09:16:03;;;;;;;13.45;7.30;;;;;;;37.12;27.01;100607.03;1878490;76;21086;-66
2021/07/11 09:18:35;;;;;;;19.23;7.72;;;;;;;36.94;27.42;100608.80;1878912;76;21035;-66
2021/07/11 09:21:06;;;;;;;;;;;;;;;36.88;27.11;100611.14;1882087;75;21047;-66
2021/07/11 09:23:37;;;;;;;10.28;6.25;;;;;;;36.78;26.80;100610.88;1878366;76;20149;-67
2021/07/11 09:26:08;;;;;;;13.53;6.35;;;;;;;36.58;25.93;100605.72;1878477;76;21050;-67
2021/07/11 09:28:39;;;;;;;20.48;7.08;;;;;;;36.36;25.60;100610.91;1878527;76;21030;-67
2021/07/11 09:31:13;;;;;;;17.20;6.72;;;;;;;36.29;25.19;100610.45;1878540;76;21442;-67
2021/07/11 09:33:45;;;;;;;18.77;7.28;;;;;;;36.24;25.18;100604.00;1878378;76;21105;-66
2021/07/11 09:36:22;;;;;;;16.82;7.28;;;;;;;36.20;25.10;100603.63;1878537;76;21035;-67
2021/07/11 09:38:58;;;;;;;13.50;7.03;;;;;;;36.34;25.27;100600.17;1878480;76;21121;-66
2021/07/11 09:41:29;;;;;;;15.95;6.22;;;;;;;36.38;24.58;100606.02;1878351;76;21062;-66
2021/07/11 09:44:00;;;;;;;12.75;6.72;;;;;;;36.33;23.87;100606.16;1878125;76;21035;-66
2021/07/11 09:46:35;;;;;;;13.45;6.25;;;;;;;36.11;23.63;100607.19;1878606;76;21027;-66
2021/07/11 09:49:06;;;;;;;9.75;6.30;;;;;;;35.89;23.80;100606.03;1878231;76;21098;-66
2021/07/11 09:51:35;;;;;;;11.08;5.67;;;;;;;35.87;24.09;100606.80;1877575;75;21067;-66
2021/07/11 09:54:15;;;;;;;8.00;4.47;;;;;;;35.75;24.10;100601.27;1878570;76;21047;-65
2021/07/11 09:56:46;;;;;;;8.95;5.25;;;;;;;35.69;23.90;100601.66;1878382;76;21117;-66
2021/07/11 09:59:21;;;;;;;7.67;5.20;;;;;;;35.44;23.32;100596.22;1878227;76;21113;-67
2021/07/11 10:01:47;;;;;;;14.30;5.15;;;;;;;35.35;23.74;100593.48;1877836;76;21514;-66
2021/07/11 10:04:16;;;;;;;9.83;5.03;;;;;;;35.26;23.96;100596.22;1878323;76;21536;-66
2021/07/11 10:06:47;;;;;;;9.58;5.62;;;;;;;35.19;23.52;100592.17;1878369;76;21525;-66
2021/07/11 10:09:16;;;;;;;12.20;6.00;;;;;;;35.17;24.30;100597.00;1878005;76;21152;-71
2021/07/11 10:11:44;;;;;;;8.35;5.75;;;;;;;35.13;24.05;100593.05;1876962;76;21510;-70
2021/07/11 10:14:13;;;;;;;17.57;6.35;;;;;;;35.22;24.85;100593.09;1878374;76;21035;-67
2021/07/11 10:16:42;;;;;;;10.10;4.85;;;;;;;35.28;25.03;100597.66;1878098;76;21113;-67
2021/07/11 10:19:13;;;;;;;10.15;5.72;;;;;;;35.08;23.41;100588.78;1877368;75;21614;-68
2021/07/11 10:21:45;;;;;;;10.68;5.03;;;;;;;35.08;23.41;100588.78;1875243;75;21082;-69
2021/07/11 10:24:21;;;;;;;12.23;5.95;;;;;;;35.04;23.88;100594.41;1878212;76;21087;-67
2021/07/11 10:26:50;;;;;;;10.75;4.97;;;;;;;34.97;24.17;100596.69;1878263;75;21160;-68
2021/07/11 10:29:23;;;;;;;9.45;5.12;;;;;;;34.93;24.56;100591.88;1878463;76;21047;-68
2021/07/11 10:31:55;;;;;;;9.95;4.67;;;;;;;34.95;24.27;100589.75;1875518;76;21030;-67
2021/07/11 10:34:30;;;;;;;8.90;5.30;;;;;;;34.85;23.80;100591.63;1872985;76;21031;-67
2021/07/11 10:37:00;;;;;;;12.37;5.12;;;;;;;34.85;24.52;100587.53;1872857;76;21465;-67
2021/07/11 10:39:34;;;;;;;11.95;5.28;;;;;;;34.85;24.52;100587.53;1873101;76;21116;-70
2021/07/11 10:42:03;;;;;;;10.05;5.08;;;;;;;34.81;24.01;100583.58;1875251;76;21011;-70
2021/07/11 10:44:32;;;;;;;6.33;4.08;;;;;;;34.63;23.84;100584.86;1878459;76;21104;-66
2021/07/11 10:47:03;;;;;;;12.85;5.67;;;;;;;34.63;23.84;100599.90;1878343;76;21031;-66
2021/07/11 10:49:35;;;;;;;10.50;5.15;;;;;;;34.52;23.71;100583.14;1878543;76;21078;-66
2021/07/11 10:52:09;;;;;;;15.20;5.67;;;;;;;34.51;24.21;100581.48;1876072;76;21494;-66
2021/07/11 10:54:41;;;;;;;10.80;4.80;;;;;;;34.43;24.43;100584.47;1878335;76;21036;-67
2021/07/11 10:57:12;;;;;;;18.90;6.33;;;;;;;34.23;24.18;100579.99;1877601;76;21134;-66
2021/07/11 10:59:45;;;;;;;9.08;4.33;;;;;;;34.00;24.57;100570.12;1878314;76;21116;-67
2021/07/11 11:02:23;;;;;;;12.73;6.47;;;;;;;34.00;24.57;100570.12;1878550;76;21039;-66
2021/07/11 11:05:20;;;;;;;12.63;5.53;;;;;;;33.96;24.43;100575.72;1878456;76;21015;-66
2021/07/11 11:07:48;;;;;;;10.88;5.28;;;;;;;33.92;24.73;100579.41;1877728;76;21043;-66
2021/07/11 11:10:22;;;;;;;9.05;5.33;;;;;;;33.83;24.33;100584.27;1878516;76;21098;-66
2021/07/11 11:13:10;;;;;;;12.50;6.22;;;;;;;33.71;23.82;100575.61;1878397;76;21160;-66
2021/07/11 11:15:45;;;;;;;11.30;5.40;;;;;;;33.62;24.54;100574.98;1878445;76;21054;-66
2021/07/11 11:18:16;;;;;;;12.23;7.15;;;;;;;33.55;24.51;100578.25;1878555;76;21055;-65
2021/07/11 11:20:50;;;;;;;14.90;7.25;;;;;;;33.52;25.00;100570.52;1878558;74;21137;-66
2021/07/11 11:23:19;;;;;;;10.93;6.42;;;;;;;33.49;25.24;100573.14;1880874;75;21140;-66
2021/07/11 11:25:48;;;;;;;14.80;7.47;;;;;;;33.51;24.76;100571.56;1882003;76;21112;-66
2021/07/11 11:28:39;;;;;;;10.45;7.15;;;;;;;33.44;24.26;100576.53;1882331;75;21074;-66
2021/07/11 11:31:10;;;;;;;13.80;6.70;;;;;;;33.40;24.26;100569.83;1881356;76;21106;-66
2021/07/11 11:33:54;;;;;;;14.20;7.73;;;;;;;33.35;24.14;100580.55;1882692;75;21149;-66